createdAt,value
2018-09-20T00:00:15.579Z,99.90
2018-09-20T00:05:25.643Z,99.90
2018-09-20T00:10:35.599Z,99.90
2018-09-20T00:15:45.953Z,99.90
2018-09-20T00:20:55.907Z,99.90
2018-09-20T00:26:06.442Z,99.90
2018-09-20T00:31:16.657Z,99.90
2018-09-20T00:36:26.635Z,99.90
2018-09-20T00:41:36.754Z,99.90
2018-09-20T00:46:46.683Z,99.90
2018-09-20T00:51:56.797Z,99.90
2018-09-20T00:57:06.773Z,99.90
2018-09-20T01:02:16.928Z,99.90
2018-09-20T01:07:26.965Z,99.90
2018-09-20T01:12:37.104Z,99.90
2018-09-20T01:17:47.261Z,99.90
2018-09-20T01:22:57.295Z,99.90
2018-09-20T01:28:07.283Z,99.90
2018-09-20T01:33:17.554Z,99.90
2018-09-20T01:38:27.642Z,99.90
2018-09-20T01:43:37.747Z,99.90
2018-09-20T01:48:47.828Z,99.90
2018-09-20T01:53:57.805Z,99.90
2018-09-20T01:59:07.849Z,99.90
2018-09-20T02:04:17.945Z,99.90
2018-09-20T02:09:28.025Z,99.90
2018-09-20T02:14:37.986Z,99.90
2018-09-20T02:19:48.128Z,99.90
2018-09-20T02:24:58.212Z,99.90
2018-09-20T02:30:08.374Z,99.90
2018-09-20T02:35:18.530Z,99.90
2018-09-20T02:40:30.239Z,99.90
2018-09-20T02:45:51.448Z,99.90
2018-09-20T02:51:09.626Z,99.90
2018-09-20T02:56:28.765Z,99.90
2018-09-20T03:01:42.694Z,99.90
2018-09-20T03:06:58.106Z,99.90
2018-09-20T03:12:15.718Z,99.90
2018-09-20T03:17:37.010Z,99.90
2018-09-20T03:22:56.416Z,99.90
2018-09-20T03:28:16.757Z,99.90
2018-09-20T03:33:35.965Z,99.90
2018-09-20T03:38:49.525Z,99.90
2018-09-20T03:44:01.749Z,99.90
2018-09-20T03:49:11.871Z,99.90
2018-09-20T03:54:21.822Z,99.90
2018-09-20T03:59:31.753Z,99.90
2018-09-20T04:04:41.686Z,99.90
2018-09-20T04:09:52.111Z,99.90
2018-09-20T04:15:02.214Z,99.90
2018-09-20T04:20:12.254Z,99.90
2018-09-20T04:25:22.324Z,99.90
2018-09-20T04:30:32.469Z,99.90
2018-09-20T04:35:42.483Z,99.90
2018-09-20T04:40:55.082Z,99.90
2018-09-20T04:46:05.121Z,99.90
2018-09-20T04:51:16.329Z,99.90
2018-09-20T04:56:26.265Z,99.90
2018-09-20T05:01:36.202Z,99.90
2018-09-20T05:06:46.187Z,99.90
2018-09-20T05:11:56.245Z,99.90
2018-09-20T05:17:06.348Z,99.90
2018-09-20T05:22:16.543Z,99.90
2018-09-20T05:27:26.549Z,99.90
2018-09-20T05:32:39.719Z,99.90
2018-09-20T05:37:49.811Z,99.90
2018-09-20T05:43:00.902Z,99.90
2018-09-20T05:48:11.470Z,99.90
2018-09-20T05:53:21.529Z,99.90
2018-09-20T05:58:31.913Z,99.90
2018-09-20T06:03:42.638Z,99.90
2018-09-20T06:08:52.636Z,99.90
2018-09-20T06:14:04.410Z,99.90
2018-09-20T06:19:14.417Z,99.90
2018-09-20T06:24:24.566Z,99.90
2018-09-20T06:29:34.705Z,99.90
2018-09-20T06:34:44.785Z,99.90
2018-09-20T06:40:30.868Z,99.90
2018-09-20T06:45:40.888Z,99.90
2018-09-20T06:50:50.950Z,99.90
2018-09-20T06:56:00.862Z,99.90
2018-09-20T07:01:10.900Z,99.90
2018-09-20T07:06:21.337Z,99.90
2018-09-20T07:11:31.487Z,99.90
2018-09-20T07:16:41.520Z,99.90
2018-09-20T07:21:51.660Z,99.90
2018-09-20T07:27:01.545Z,99.90
2018-09-20T07:32:11.504Z,99.90
2018-09-20T07:37:21.551Z,99.90
2018-09-20T07:42:31.479Z,99.90
2018-09-20T07:47:41.501Z,99.90
2018-09-20T07:52:51.500Z,99.90
2018-09-20T07:58:01.541Z,99.90
2018-09-20T08:03:11.403Z,99.90
2018-09-20T08:08:21.407Z,99.90
2018-09-20T08:13:31.416Z,99.90
2018-09-20T08:18:41.283Z,99.90
2018-09-20T08:23:51.296Z,99.90
2018-09-20T08:29:01.338Z,99.90
2018-09-20T08:34:11.303Z,99.90
2018-09-20T08:39:21.214Z,99.90
2018-09-20T08:44:31.256Z,99.90
2018-09-20T08:49:41.324Z,99.90
2018-09-20T08:54:51.347Z,99.90
2018-09-20T09:00:01.536Z,99.90
2018-09-20T09:05:11.618Z,99.90
2018-09-20T09:10:21.657Z,99.90
2018-09-20T09:15:31.572Z,99.90
2018-09-20T09:20:41.620Z,99.90
2018-09-20T09:25:51.664Z,99.90
2018-09-20T09:31:01.824Z,99.90
2018-09-20T09:36:11.744Z,99.90
2018-09-20T09:41:21.874Z,99.90
2018-09-20T09:46:31.775Z,99.90
2018-09-20T09:51:41.760Z,99.90
2018-09-20T09:56:51.807Z,99.90
2018-09-20T10:02:01.823Z,99.90
2018-09-20T10:07:11.917Z,99.90
2018-09-20T10:12:21.912Z,99.90
2018-09-20T10:17:32.204Z,99.90
2018-09-20T10:22:42.248Z,99.90
2018-09-20T10:27:52.212Z,99.90
2018-09-20T10:33:02.226Z,99.90
2018-09-20T10:38:12.126Z,99.90
2018-09-20T10:43:22.185Z,99.90
2018-09-20T10:48:33.140Z,99.90
2018-09-20T10:53:43.602Z,99.90
2018-09-20T10:58:53.866Z,99.90
2018-09-20T11:04:03.787Z,99.90
2018-09-20T11:09:13.804Z,99.90
2018-09-20T11:14:23.891Z,99.90
2018-09-20T11:19:33.919Z,99.90
2018-09-20T11:24:43.820Z,99.90
2018-09-20T11:29:53.864Z,99.90
2018-09-20T11:35:03.988Z,99.90
2018-09-20T11:40:13.949Z,99.90
2018-09-20T11:45:24.012Z,99.90
2018-09-20T11:50:35.005Z,99.90
2018-09-20T11:55:46.857Z,99.90
2018-09-20T12:00:56.920Z,99.90
2018-09-20T12:06:06.974Z,99.90
2018-09-20T12:11:16.815Z,99.90
2018-09-20T12:16:26.860Z,99.90
2018-09-20T12:21:36.913Z,99.90
2018-09-20T12:26:46.971Z,99.90
2018-09-20T12:31:56.932Z,99.90
2018-09-20T12:37:06.788Z,99.90
2018-09-20T12:42:16.695Z,98.60
2018-09-20T12:47:26.705Z,98.80
2018-09-20T12:52:36.744Z,99.90
2018-09-20T12:57:46.831Z,99.90
2018-09-20T13:02:56.839Z,99.90
2018-09-20T13:08:06.845Z,99.90
2018-09-20T13:13:16.927Z,99.90
2018-09-20T13:18:26.903Z,99.90
2018-09-20T13:23:37.053Z,99.50
2018-09-20T13:28:46.917Z,99.90
2018-09-20T13:33:57.072Z,99.90
2018-09-20T13:39:09.212Z,99.40
2018-09-20T13:44:19.220Z,97.90
2018-09-20T13:49:29.227Z,97.40
2018-09-20T13:54:39.232Z,97.60
2018-09-20T13:59:49.267Z,97.80
2018-09-20T14:04:59.278Z,97.30
2018-09-20T14:10:09.232Z,97.30
2018-09-20T14:15:19.267Z,97.50
2018-09-20T14:20:30.545Z,94.70
2018-09-20T14:25:40.472Z,98.60
2018-09-20T14:30:50.940Z,96.90
2018-09-20T14:36:00.930Z,96.90
2018-09-20T14:41:10.955Z,97.70
2018-09-20T14:46:51.847Z,98.30
2018-09-20T14:52:01.785Z,99.80
2018-09-20T14:57:11.851Z,98.50
2018-09-20T15:02:21.936Z,98.90
2018-09-20T15:07:31.772Z,98.20
2018-09-20T15:12:41.864Z,98.90
2018-09-20T15:17:51.906Z,98.80
2018-09-20T15:23:01.928Z,97.20
2018-09-20T15:28:12.187Z,97.90
2018-09-20T15:33:22.116Z,97.60
2018-09-20T15:38:32.166Z,98.40
2018-09-20T15:43:42.188Z,98.50
2018-09-20T15:48:52.230Z,97.30
2018-09-20T15:54:02.381Z,96.90
2018-09-20T15:59:12.296Z,99.60
2018-09-20T16:04:22.420Z,99.80
2018-09-20T16:09:32.456Z,99.90
2018-09-20T16:14:42.478Z,99.90
2018-09-20T16:19:52.516Z,99.90
2018-09-20T16:25:02.566Z,99.90
2018-09-20T16:30:24.285Z,99.90
2018-09-20T16:35:43.776Z,99.90
2018-09-20T16:40:54.581Z,99.90
2018-09-20T16:46:04.584Z,99.90
2018-09-20T16:51:14.536Z,99.90
2018-09-20T16:56:24.379Z,99.90
2018-09-20T17:01:34.403Z,99.90
2018-09-20T17:06:44.262Z,99.90
2018-09-20T17:11:54.129Z,99.90
2018-09-20T17:17:04.499Z,99.90
2018-09-20T17:22:14.521Z,99.90
2018-09-20T17:27:25.015Z,99.90
2018-09-20T17:32:34.913Z,99.90
2018-09-20T17:37:45.666Z,99.90
2018-09-20T17:43:00.375Z,99.90
2018-09-20T17:48:10.969Z,99.90
2018-09-20T17:53:21.650Z,99.90
2018-09-20T17:58:31.947Z,99.90
2018-09-20T18:03:41.885Z,99.90
2018-09-20T18:08:51.853Z,99.90
2018-09-20T18:14:01.772Z,99.90
2018-09-20T18:19:11.839Z,99.90
2018-09-20T18:24:31.754Z,99.90
2018-09-20T18:29:41.857Z,99.90
2018-09-20T18:34:51.904Z,99.90
2018-09-20T18:40:02.289Z,99.90
2018-09-20T18:45:12.232Z,99.90
2018-09-20T18:50:23.040Z,99.90
2018-09-20T18:55:33.116Z,99.90
2018-09-20T19:00:43.181Z,99.90
2018-09-20T19:05:53.264Z,99.90
2018-09-20T19:11:03.231Z,99.90
2018-09-20T19:16:13.088Z,99.90
2018-09-20T19:21:23.729Z,99.90
2018-09-20T19:26:34.756Z,99.90
2018-09-20T19:31:46.296Z,99.90
2018-09-20T19:36:58.513Z,99.90
2018-09-20T19:42:08.881Z,99.90
2018-09-20T19:47:19.229Z,99.90
2018-09-20T19:52:29.187Z,99.90
2018-09-20T19:57:39.221Z,99.90
2018-09-20T20:02:49.204Z,99.90
2018-09-20T20:07:59.949Z,99.90
2018-09-20T20:13:09.881Z,99.90
2018-09-20T20:18:19.960Z,99.90
2018-09-20T20:23:29.882Z,99.90
2018-09-20T20:28:39.972Z,99.90
2018-09-20T20:33:50.205Z,99.90
2018-09-20T20:39:00.064Z,99.90
2018-09-20T20:44:10.432Z,99.90
2018-09-20T20:49:20.660Z,99.90
2018-09-20T20:54:30.557Z,99.90
2018-09-20T20:59:40.524Z,99.90
2018-09-20T21:04:51.412Z,99.90
2018-09-20T21:10:04.309Z,99.90
2018-09-20T21:15:14.224Z,99.90
2018-09-20T21:20:24.121Z,99.90
2018-09-20T21:25:34.553Z,99.90
2018-09-20T21:30:45.252Z,99.90
2018-09-20T21:35:55.857Z,99.90
2018-09-20T21:41:06.195Z,99.90
2018-09-20T21:46:16.103Z,99.90
2018-09-20T21:51:26.752Z,99.90
2018-09-20T21:56:36.711Z,99.90
2018-09-20T22:01:52.668Z,99.90
2018-09-20T22:07:02.696Z,99.90
2018-09-20T22:12:12.743Z,99.90
2018-09-20T22:17:22.728Z,99.90
2018-09-20T22:22:33.304Z,99.90
2018-09-20T22:27:43.290Z,99.90
2018-09-20T22:32:53.530Z,99.90
2018-09-20T22:38:03.564Z,99.90
2018-09-20T22:43:13.878Z,99.90
2018-09-20T22:48:23.984Z,99.90
2018-09-20T22:53:34.017Z,99.90
2018-09-20T22:58:44.021Z,99.90
2018-09-20T23:03:54.084Z,99.90
2018-09-20T23:09:06.441Z,99.90
2018-09-20T23:14:16.391Z,99.90
2018-09-20T23:19:26.429Z,99.90
2018-09-20T23:24:36.439Z,99.90
2018-09-20T23:29:46.472Z,99.90
2018-09-20T23:34:56.429Z,99.90
2018-09-20T23:40:07.394Z,99.90
2018-09-20T23:45:17.291Z,99.90
2018-09-20T23:50:27.335Z,99.90
2018-09-20T23:55:37.347Z,99.90
